createdAt,value
2023-04-07T00:01:44.693Z,14.70
2023-04-07T00:04:11.720Z,18.70
2023-04-07T00:06:38.490Z,20.23
2023-04-07T00:09:05.385Z,23.77
2023-04-07T00:11:32.383Z,22.97
2023-04-07T00:13:59.175Z,18.30
2023-04-07T00:16:25.985Z,26.87
2023-04-07T00:18:52.824Z,20.57
2023-04-07T00:21:19.714Z,21.13
2023-04-07T00:23:47.589Z,19.30
2023-04-07T00:26:14.330Z,17.70
2023-04-07T00:28:41.044Z,19.57
2023-04-07T00:31:07.808Z,19.47
2023-04-07T00:33:34.516Z,20.77
2023-04-07T00:36:01.639Z,25.10
2023-04-07T00:38:28.271Z,19.53
2023-04-07T00:41:02.056Z,19.83
2023-04-07T00:43:28.766Z,17.77
2023-04-07T00:45:55.942Z,18.40
2023-04-07T00:48:22.834Z,18.33
2023-04-07T00:50:49.819Z,21.37
2023-04-07T00:53:17.344Z,17.77
2023-04-07T00:55:44.241Z,17.30
2023-04-07T00:58:11.841Z,21.53
2023-04-07T01:00:57.373Z,19.60
2023-04-07T01:03:34.997Z,17.17
2023-04-07T01:06:02.785Z,17.07
2023-04-07T01:08:38.751Z,16.60
2023-04-07T01:11:10.540Z,23.83
2023-04-07T01:13:51.588Z,17.63
2023-04-07T01:16:31.066Z,19.13
2023-04-07T01:19:04.792Z,27.07
2023-04-07T01:21:35.104Z,22.80
2023-04-07T01:24:11.708Z,22.33
2023-04-07T01:26:39.292Z,18.07
2023-04-07T01:29:31.184Z,19.50
2023-04-07T01:32:02.184Z,23.87
2023-04-07T01:34:31.543Z,19.70
2023-04-07T01:37:01.487Z,21.80
2023-04-07T01:39:28.865Z,21.00
2023-04-07T01:41:57.996Z,22.30
2023-04-07T01:44:26.091Z,20.33
2023-04-07T01:46:53.982Z,18.80
2023-04-07T01:49:21.149Z,25.13
2023-04-07T01:51:50.372Z,16.90
2023-04-07T01:54:18.570Z,20.50
2023-04-07T01:56:45.931Z,20.47
2023-04-07T01:59:13.041Z,23.20
2023-04-07T02:01:40.117Z,19.17
2023-04-07T02:04:25.531Z,21.03
2023-04-07T02:06:59.832Z,21.63
2023-04-07T02:09:29.494Z,21.10
2023-04-07T02:11:59.873Z,18.60
2023-04-07T02:14:27.960Z,21.27
2023-04-07T02:16:56.083Z,18.70
2023-04-07T02:19:23.056Z,21.33
2023-04-07T02:21:52.361Z,19.70
2023-04-07T02:24:22.436Z,22.73
2023-04-07T02:26:49.260Z,22.80
2023-04-07T02:29:16.006Z,18.77
2023-04-07T02:31:42.826Z,23.07
2023-04-07T02:34:09.656Z,27.47
2023-04-07T02:36:36.458Z,24.67
2023-04-07T02:39:03.772Z,27.53
2023-04-07T02:41:30.470Z,33.50
2023-04-07T02:43:57.584Z,23.37
2023-04-07T02:46:24.675Z,28.13
2023-04-07T02:48:52.219Z,33.30
2023-04-07T02:51:19.038Z,33.90
2023-04-07T02:53:45.708Z,32.37
2023-04-07T02:56:12.363Z,38.50
2023-04-07T02:58:39.222Z,36.60
2023-04-07T03:01:06.001Z,36.80
2023-04-07T03:03:32.988Z,42.13
2023-04-07T03:05:59.770Z,42.33
2023-04-07T03:08:27.244Z,41.13
2023-04-07T03:10:53.931Z,38.47
2023-04-07T03:13:21.363Z,38.47
2023-04-07T03:15:48.049Z,46.97
2023-04-07T03:18:14.796Z,39.57
2023-04-07T03:20:42.370Z,54.87
2023-04-07T03:23:09.181Z,40.87
2023-04-07T03:25:36.474Z,51.70
2023-04-07T03:28:03.229Z,39.53
2023-04-07T03:30:29.934Z,44.77
2023-04-07T03:32:56.680Z,43.37
2023-04-07T03:35:23.379Z,42.00
2023-04-07T03:37:50.203Z,47.00
2023-04-07T03:40:17.026Z,44.07
2023-04-07T03:42:43.789Z,49.53
2023-04-07T03:45:10.552Z,41.27
2023-04-07T03:47:37.291Z,49.57
2023-04-07T03:50:04.366Z,52.47
2023-04-07T03:52:31.712Z,49.43
2023-04-07T03:54:58.785Z,49.53
2023-04-07T03:57:25.482Z,57.23
2023-04-07T03:59:52.183Z,57.87
2023-04-07T04:02:19.235Z,52.67
2023-04-07T04:04:46.058Z,45.17
2023-04-07T04:07:12.806Z,51.73
2023-04-07T04:09:39.911Z,52.43
2023-04-07T04:12:06.707Z,57.53
2023-04-07T04:14:33.500Z,62.00
2023-04-07T04:17:00.613Z,56.83
2023-04-07T04:19:27.403Z,58.63
2023-04-07T04:21:54.049Z,46.50
2023-04-07T04:24:20.749Z,49.27
2023-04-07T04:26:47.404Z,44.23
2023-04-07T04:29:14.041Z,41.10
2023-04-07T04:31:40.808Z,40.40
2023-04-07T04:34:07.627Z,45.87
2023-04-07T04:36:35.272Z,43.40
2023-04-07T04:39:02.806Z,47.97
2023-04-07T04:41:29.480Z,52.27
2023-04-07T04:43:56.153Z,47.60
2023-04-07T04:46:23.003Z,47.67
2023-04-07T04:48:49.682Z,50.97
2023-04-07T04:51:16.418Z,50.33
2023-04-07T04:53:43.137Z,46.70
2023-04-07T04:56:09.817Z,47.00
2023-04-07T04:58:37.499Z,45.77
2023-04-07T05:01:04.237Z,55.47
2023-04-07T05:03:31.400Z,57.67
2023-04-07T05:05:58.214Z,49.47
2023-04-07T05:08:24.882Z,52.57
2023-04-07T05:10:51.595Z,43.80
2023-04-07T05:13:18.257Z,49.93
2023-04-07T05:15:44.949Z,56.70
2023-04-07T05:18:11.683Z,37.30
2023-04-07T05:20:38.735Z,44.37
2023-04-07T05:23:05.460Z,46.43
2023-04-07T05:25:32.681Z,38.33
2023-04-07T05:27:59.769Z,40.30
2023-04-07T05:30:26.509Z,45.33
2023-04-07T05:32:53.670Z,44.00
2023-04-07T05:35:20.769Z,40.43
2023-04-07T05:37:47.495Z,41.43
2023-04-07T05:42:46.022Z,39.13
2023-04-07T05:45:12.818Z,37.77
2023-04-07T05:47:39.561Z,38.10
2023-04-07T05:50:07.104Z,38.47
2023-04-07T05:52:34.034Z,35.17
2023-04-07T05:55:00.917Z,36.30
2023-04-07T05:57:28.365Z,42.27
2023-04-07T05:59:55.224Z,36.60
2023-04-07T06:02:22.136Z,31.00
2023-04-07T06:04:48.982Z,28.97
2023-04-07T06:07:15.773Z,32.90
2023-04-07T06:09:42.690Z,34.53
2023-04-07T06:12:10.707Z,27.93
2023-04-07T06:14:37.423Z,28.30
2023-04-07T06:17:04.146Z,26.33
2023-04-07T06:19:30.896Z,27.43
2023-04-07T06:21:57.539Z,27.17
2023-04-07T06:24:25.317Z,23.80
2023-04-07T06:26:56.885Z,29.33
2023-04-07T06:29:23.651Z,24.10
2023-04-07T06:31:50.417Z,25.73
2023-04-07T06:34:17.403Z,24.13
2023-04-07T06:36:44.362Z,29.50
2023-04-07T06:39:11.574Z,23.20
2023-04-07T06:41:38.936Z,22.17
2023-04-07T06:44:07.592Z,20.37
2023-04-07T06:46:35.613Z,22.03
2023-04-07T06:49:03.693Z,20.70
2023-04-07T06:51:30.544Z,20.83
2023-04-07T06:53:57.376Z,17.10
2023-04-07T06:56:24.171Z,22.70
2023-04-07T06:58:51.096Z,21.50
2023-04-07T07:01:17.809Z,17.70
2023-04-07T07:03:44.716Z,17.73
2023-04-07T07:06:11.685Z,18.63
2023-04-07T07:08:38.443Z,18.03
2023-04-07T07:11:05.460Z,14.40
2023-04-07T07:13:32.142Z,17.73
2023-04-07T07:15:58.841Z,14.37
2023-04-07T07:18:25.766Z,12.83
2023-04-07T07:20:52.492Z,15.30
2023-04-07T07:23:19.199Z,12.27
2023-04-07T07:25:45.870Z,14.13
2023-04-07T07:28:12.648Z,14.20
2023-04-07T07:30:41.322Z,14.90
2023-04-07T07:33:08.151Z,11.50
2023-04-07T07:35:35.327Z,14.43
2023-04-07T07:38:01.962Z,12.47
2023-04-07T07:40:28.689Z,14.57
2023-04-07T07:42:56.669Z,12.53
2023-04-07T07:45:23.435Z,11.57
2023-04-07T07:47:50.354Z,12.60
2023-04-07T07:50:17.126Z,10.63
2023-04-07T07:52:43.799Z,12.70
2023-04-07T07:55:11.320Z,11.43
2023-04-07T07:57:37.999Z,8.07
2023-04-07T08:00:05.155Z,11.40
2023-04-07T08:02:33.883Z,11.47
2023-04-07T08:05:01.024Z,11.33
2023-04-07T08:07:27.755Z,12.53
2023-04-07T08:09:54.407Z,14.20
2023-04-07T08:12:21.989Z,11.43
2023-04-07T08:14:49.981Z,11.43
2023-04-07T08:17:17.016Z,16.30
2023-04-07T08:19:43.881Z,11.17
2023-04-07T08:22:10.691Z,10.73
2023-04-07T08:24:37.457Z,12.80
2023-04-07T08:27:04.247Z,12.00
2023-04-07T08:29:31.305Z,11.77
2023-04-07T08:31:59.022Z,15.47
2023-04-07T08:34:25.720Z,15.80
2023-04-07T08:36:52.423Z,16.17
2023-04-07T08:39:19.532Z,14.30
2023-04-07T08:41:48.803Z,14.33
2023-04-07T08:44:15.935Z,13.20
2023-04-07T08:46:43.889Z,15.43
2023-04-07T08:49:13.930Z,14.17
2023-04-07T08:51:47.498Z,16.97
2023-04-07T08:54:16.604Z,13.77
2023-04-07T08:56:43.689Z,14.57
2023-04-07T08:59:15.679Z,13.77
2023-04-07T09:01:42.757Z,12.83
2023-04-07T09:04:10.564Z,16.00
2023-04-07T09:06:37.860Z,12.00
2023-04-07T09:09:07.581Z,14.47
2023-04-07T09:11:39.947Z,14.23
2023-04-07T09:14:06.670Z,16.67
2023-04-07T09:16:33.536Z,13.17
2023-04-07T09:19:00.428Z,12.83
2023-04-07T09:21:27.394Z,14.67
2023-04-07T09:23:54.249Z,11.87
2023-04-07T09:26:26.253Z,13.10
2023-04-07T09:28:59.449Z,11.97
2023-04-07T09:31:46.769Z,12.73
2023-04-07T09:34:30.964Z,12.90
2023-04-07T09:36:57.925Z,13.63
2023-04-07T09:39:25.671Z,11.80
2023-04-07T09:41:52.976Z,10.10
2023-04-07T09:44:23.257Z,13.73
2023-04-07T09:46:53.806Z,11.80
2023-04-07T09:49:21.267Z,12.10
2023-04-07T09:51:54.833Z,10.47
2023-04-07T09:54:37.710Z,11.47
2023-04-07T09:57:06.428Z,11.50
2023-04-07T09:59:34.346Z,13.03
2023-04-07T10:02:01.385Z,11.63
2023-04-07T10:04:31.902Z,13.03
2023-04-07T10:07:00.173Z,8.83
2023-04-07T10:09:28.399Z,10.20
2023-04-07T10:11:57.246Z,11.67
2023-04-07T10:14:31.918Z,9.80
2023-04-07T10:17:03.260Z,10.17
2023-04-07T10:19:35.952Z,9.47
2023-04-07T10:22:05.355Z,9.60
2023-04-07T10:24:56.164Z,10.07
2023-04-07T10:27:49.861Z,14.37
2023-04-07T10:30:26.359Z,12.27
2023-04-07T10:32:54.452Z,21.17
2023-04-07T10:35:22.390Z,13.40
2023-04-07T10:38:07.346Z,14.20
2023-04-07T10:40:35.914Z,13.20
2023-04-07T10:43:03.228Z,14.47
2023-04-07T10:45:54.162Z,12.80
2023-04-07T10:48:21.870Z,15.77
2023-04-07T10:51:07.960Z,15.93
2023-04-07T10:53:35.079Z,18.17
2023-04-07T10:56:02.110Z,19.17
2023-04-07T10:58:30.681Z,16.90
2023-04-07T11:00:57.418Z,18.80
2023-04-07T11:03:25.551Z,15.43
2023-04-07T11:05:52.596Z,15.70
2023-04-07T11:08:36.226Z,17.47
2023-04-07T11:11:08.952Z,15.87
2023-04-07T11:13:50.408Z,18.10
2023-04-07T11:16:19.106Z,19.40
2023-04-07T11:18:48.489Z,21.33
2023-04-07T11:21:19.389Z,30.17
2023-04-07T11:23:47.798Z,32.00
2023-04-07T11:26:15.966Z,21.13
2023-04-07T11:28:49.427Z,18.23
2023-04-07T11:31:48.302Z,15.90
2023-04-07T11:34:15.104Z,16.37
2023-04-07T11:36:42.393Z,15.03
2023-04-07T11:39:23.128Z,12.63
2023-04-07T11:41:50.951Z,16.43
2023-04-07T11:44:17.735Z,13.50
2023-04-07T11:46:58.224Z,16.47
2023-04-07T11:49:28.101Z,16.03
2023-04-07T11:52:07.120Z,17.73
2023-04-07T11:54:46.727Z,16.07
2023-04-07T11:57:14.029Z,16.40
2023-04-07T11:59:41.745Z,17.43
2023-04-07T12:02:09.417Z,17.10
2023-04-07T12:04:40.198Z,15.03
2023-04-07T12:07:09.587Z,12.40
2023-04-07T12:09:37.532Z,12.40
2023-04-07T12:12:06.405Z,13.43
2023-04-07T12:14:33.430Z,14.90
2023-04-07T12:17:03.173Z,16.20
2023-04-07T12:19:32.835Z,15.07
2023-04-07T12:21:59.876Z,13.80
2023-04-07T12:24:27.248Z,14.57
2023-04-07T12:26:54.081Z,14.03
2023-04-07T12:29:20.915Z,13.27
2023-04-07T12:31:50.643Z,16.63
2023-04-07T12:34:18.033Z,12.17
2023-04-07T12:36:45.147Z,12.43
2023-04-07T12:39:12.729Z,12.07
2023-04-07T12:41:39.912Z,13.97
2023-04-07T12:44:06.992Z,12.17
2023-04-07T12:46:34.345Z,13.47
2023-04-07T12:49:01.226Z,12.23
2023-04-07T12:51:28.578Z,12.57
2023-04-07T12:53:55.553Z,10.57
2023-04-07T12:56:25.103Z,12.03
2023-04-07T12:58:51.922Z,10.50
2023-04-07T13:01:18.752Z,11.13
2023-04-07T13:03:45.967Z,11.57
2023-04-07T13:06:12.929Z,12.70
2023-04-07T13:08:40.905Z,12.00
2023-04-07T13:11:07.892Z,14.37
2023-04-07T13:13:34.846Z,10.63
2023-04-07T13:16:01.913Z,14.17
2023-04-07T13:18:28.776Z,14.17
2023-04-07T13:21:22.136Z,11.40
2023-04-07T13:23:43.939Z,12.77
2023-04-07T13:26:11.481Z,11.93
2023-04-07T13:28:38.873Z,11.00
2023-04-07T13:31:05.819Z,12.03
2023-04-07T13:33:32.566Z,14.00
2023-04-07T13:35:59.457Z,12.27
2023-04-07T13:38:26.606Z,17.80
2023-04-07T13:40:53.404Z,16.10
2023-04-07T13:43:20.318Z,15.77
2023-04-07T13:45:47.183Z,13.43
2023-04-07T13:48:14.779Z,15.33
2023-04-07T13:50:41.761Z,13.10
2023-04-07T13:53:08.585Z,15.47
2023-04-07T13:55:35.301Z,16.87
2023-04-07T13:58:02.087Z,17.63
2023-04-07T14:00:28.900Z,17.17
2023-04-07T14:02:59.435Z,16.20
2023-04-07T14:05:26.637Z,15.70
2023-04-07T14:07:54.447Z,14.90
2023-04-07T14:10:21.735Z,17.70
2023-04-07T14:12:48.575Z,18.77
2023-04-07T14:15:17.702Z,13.03
2023-04-07T14:17:45.038Z,13.47
2023-04-07T14:20:11.905Z,13.60
2023-04-07T14:22:38.800Z,11.83
2023-04-07T14:25:06.332Z,15.23
2023-04-07T14:27:33.422Z,16.90
2023-04-07T14:30:00.313Z,13.13
2023-04-07T14:32:29.593Z,12.20
2023-04-07T14:34:56.790Z,12.47
2023-04-07T14:37:26.346Z,12.53
2023-04-07T14:40:02.582Z,10.03
2023-04-07T14:42:30.201Z,13.60
2023-04-07T14:44:56.991Z,12.33
2023-04-07T14:47:24.248Z,13.43
2023-04-07T14:49:53.181Z,9.90
2023-04-07T14:52:21.855Z,12.20
2023-04-07T14:54:49.027Z,11.13
2023-04-07T14:57:16.627Z,10.03
2023-04-07T14:59:43.823Z,11.03
2023-04-07T15:02:10.813Z,12.70
2023-04-07T15:04:37.821Z,11.77
2023-04-07T15:07:05.276Z,11.87
2023-04-07T15:09:32.083Z,12.63
2023-04-07T15:12:00.384Z,16.43
2023-04-07T15:14:27.235Z,11.60
2023-04-07T15:16:54.174Z,12.03
2023-04-07T15:19:21.071Z,12.40
2023-04-07T15:21:47.752Z,14.60
2023-04-07T15:24:16.248Z,15.90
2023-04-07T15:26:43.451Z,12.77
2023-04-07T15:29:10.393Z,14.87
2023-04-07T15:31:37.181Z,13.07
2023-04-07T15:34:04.083Z,15.07
2023-04-07T15:36:31.454Z,12.73
2023-04-07T15:39:04.413Z,16.37
2023-04-07T15:41:31.591Z,15.27
2023-04-07T15:44:00.353Z,14.33
2023-04-07T15:46:27.457Z,15.13
2023-04-07T15:48:54.314Z,16.13
2023-04-07T15:51:21.246Z,16.57
2023-04-07T15:53:48.322Z,14.33
2023-04-07T15:56:15.398Z,16.10
2023-04-07T15:58:42.072Z,17.20
2023-04-07T16:01:09.115Z,14.87
2023-04-07T16:03:36.063Z,13.77
2023-04-07T16:06:02.907Z,13.77
2023-04-07T16:08:29.558Z,13.30
2023-04-07T16:10:56.315Z,19.60
2023-04-07T16:13:23.245Z,18.20
2023-04-07T16:15:50.027Z,19.10
2023-04-07T16:18:16.868Z,17.93
2023-04-07T16:20:43.616Z,16.30
2023-04-07T16:23:10.660Z,19.00
2023-04-07T16:25:37.587Z,20.20
2023-04-07T16:28:04.384Z,20.53
2023-04-07T16:30:31.147Z,18.10
2023-04-07T16:33:00.179Z,12.00
2023-04-07T16:35:27.164Z,13.60
2023-04-07T16:37:54.801Z,15.47
2023-04-07T16:40:21.565Z,13.57
2023-04-07T16:42:48.378Z,12.27
2023-04-07T16:45:15.209Z,14.27
2023-04-07T16:47:44.418Z,18.90
2023-04-07T16:50:11.999Z,13.93
2023-04-07T16:52:38.787Z,12.67
2023-04-07T16:55:06.075Z,12.80
2023-04-07T16:57:32.844Z,16.93
2023-04-07T16:59:59.842Z,16.53
2023-04-07T17:02:27.822Z,15.73
2023-04-07T17:04:54.800Z,14.53
2023-04-07T17:07:21.753Z,13.97
2023-04-07T17:09:48.533Z,16.07
2023-04-07T17:12:15.360Z,13.93
2023-04-07T17:14:42.343Z,13.47
2023-04-07T17:17:09.065Z,14.00
2023-04-07T17:19:36.169Z,12.20
2023-04-07T17:22:02.952Z,15.03
2023-04-07T17:24:29.792Z,15.80
2023-04-07T17:26:56.567Z,13.43
2023-04-07T17:29:28.779Z,14.73
2023-04-07T17:31:56.614Z,14.23
2023-04-07T17:34:23.349Z,16.50
2023-04-07T17:36:51.499Z,17.40
2023-04-07T17:39:18.292Z,16.17
2023-04-07T17:41:46.793Z,14.10
2023-04-07T17:44:13.798Z,14.60
2023-04-07T17:46:41.060Z,17.03
2023-04-07T17:49:08.235Z,15.07
2023-04-07T17:51:35.027Z,20.37
2023-04-07T17:54:01.858Z,19.93
2023-04-07T17:56:28.788Z,16.93
2023-04-07T17:58:55.721Z,16.57
2023-04-07T18:01:22.552Z,17.10
2023-04-07T18:03:49.725Z,14.93
2023-04-07T18:06:17.613Z,15.40
2023-04-07T18:08:48.442Z,16.50
2023-04-07T18:11:16.308Z,12.93
2023-04-07T18:13:43.098Z,17.33
2023-04-07T18:16:11.791Z,18.97
2023-04-07T18:18:38.764Z,15.60
2023-04-07T18:21:08.478Z,16.30
2023-04-07T18:23:35.401Z,15.73
2023-04-07T18:26:06.626Z,17.73
2023-04-07T18:28:34.127Z,14.60
2023-04-07T18:31:08.779Z,22.37
2023-04-07T18:33:36.461Z,22.07
2023-04-07T18:36:06.650Z,20.10
2023-04-07T18:38:38.184Z,22.27
2023-04-07T18:41:07.134Z,21.40
2023-04-07T18:43:33.896Z,19.43
2023-04-07T18:46:00.654Z,21.50
2023-04-07T18:48:27.482Z,20.47
2023-04-07T18:50:55.481Z,19.03
2023-04-07T18:53:24.163Z,21.33
2023-04-07T18:55:51.276Z,24.07
2023-04-07T18:58:19.219Z,21.10
2023-04-07T19:00:47.263Z,25.43
2023-04-07T19:03:14.251Z,18.80
2023-04-07T19:05:42.047Z,18.90
2023-04-07T19:08:09.029Z,19.73
2023-04-07T19:10:36.011Z,17.93
2023-04-07T19:13:04.489Z,19.20
2023-04-07T19:15:34.268Z,17.93
2023-04-07T19:18:04.300Z,19.77
2023-04-07T19:20:33.357Z,22.77
2023-04-07T19:23:01.530Z,21.70
2023-04-07T19:25:28.346Z,19.60
2023-04-07T19:27:55.629Z,27.00
2023-04-07T19:30:22.477Z,22.50
2023-04-07T19:32:49.786Z,19.87
2023-04-07T19:35:16.746Z,24.03
2023-04-07T19:37:43.585Z,21.30
2023-04-07T19:40:10.911Z,24.97
2023-04-07T19:42:39.370Z,22.90
2023-04-07T19:45:08.151Z,20.93
2023-04-07T19:47:36.003Z,17.03
2023-04-07T19:50:03.824Z,18.27
2023-04-07T19:52:33.971Z,21.30
2023-04-07T19:55:02.748Z,21.20
2023-04-07T19:57:31.502Z,20.17
2023-04-07T19:59:58.433Z,21.87
2023-04-07T20:02:25.418Z,22.03
2023-04-07T20:04:53.325Z,20.77
2023-04-07T20:07:20.261Z,20.80
2023-04-07T20:09:47.230Z,23.20
2023-04-07T20:12:14.956Z,23.37
2023-04-07T20:14:41.781Z,20.20
2023-04-07T20:17:08.639Z,22.07
2023-04-07T20:19:36.136Z,31.03
2023-04-07T20:22:02.927Z,31.23
2023-04-07T20:24:29.729Z,28.33
2023-04-07T20:26:56.442Z,27.47
2023-04-07T20:29:23.172Z,25.00
2023-04-07T20:31:49.863Z,21.63
2023-04-07T20:34:16.741Z,24.60
2023-04-07T20:36:43.737Z,24.43
2023-04-07T20:39:10.617Z,23.03
2023-04-07T20:41:37.855Z,23.60
2023-04-07T20:44:04.863Z,23.03
2023-04-07T20:46:33.676Z,24.27
2023-04-07T20:49:00.768Z,27.00
2023-04-07T20:51:29.009Z,23.13
2023-04-07T20:53:55.934Z,26.20
2023-04-07T20:56:23.861Z,26.63
2023-04-07T20:58:50.987Z,25.27
2023-04-07T21:01:18.392Z,24.10
2023-04-07T21:03:45.472Z,26.67
2023-04-07T21:06:12.340Z,26.47
2023-04-07T21:08:39.502Z,24.07
2023-04-07T21:11:06.462Z,26.57
2023-04-07T21:13:33.327Z,24.33
2023-04-07T21:16:01.505Z,29.20
2023-04-07T21:18:28.273Z,28.00
2023-04-07T21:20:57.626Z,24.03
2023-04-07T21:23:24.436Z,26.57
2023-04-07T21:25:51.302Z,22.63
2023-04-07T21:28:17.965Z,29.13
2023-04-07T21:30:44.773Z,28.97
2023-04-07T21:33:13.481Z,25.80
2023-04-07T21:35:40.329Z,23.27
2023-04-07T21:38:07.057Z,24.07
2023-04-07T21:40:33.729Z,24.23
2023-04-07T21:43:00.636Z,27.90
2023-04-07T21:45:29.497Z,22.60
2023-04-07T21:47:56.621Z,28.27
2023-04-07T21:50:23.976Z,27.00
2023-04-07T21:52:51.623Z,27.40
2023-04-07T21:55:21.508Z,25.73
2023-04-07T21:57:50.090Z,26.67
2023-04-07T22:00:17.023Z,27.40
2023-04-07T22:02:43.931Z,30.27
2023-04-07T22:05:11.023Z,38.37
2023-04-07T22:07:38.028Z,27.60
2023-04-07T22:10:05.167Z,24.97
2023-04-07T22:12:31.848Z,25.07
2023-04-07T22:14:58.556Z,24.57
2023-04-07T22:17:25.671Z,24.47
2023-04-07T22:19:52.394Z,25.63
2023-04-07T22:22:19.219Z,27.90
2023-04-07T22:24:45.953Z,26.93
2023-04-07T22:27:12.642Z,25.67
2023-04-07T22:29:39.340Z,22.57
2023-04-07T22:32:06.141Z,20.67
2023-04-07T22:34:32.820Z,25.87
2023-04-07T22:36:59.547Z,25.73
2023-04-07T22:39:26.657Z,27.60
2023-04-07T22:41:53.362Z,22.40
2023-04-07T22:44:20.301Z,23.73
2023-04-07T22:46:47.132Z,24.77
2023-04-07T22:49:13.879Z,29.90
2023-04-07T22:51:41.044Z,24.23
2023-04-07T22:54:07.755Z,26.07
2023-04-07T22:56:34.447Z,35.50
2023-04-07T22:59:05.347Z,32.07
2023-04-07T23:01:32.647Z,25.50
2023-04-07T23:03:59.622Z,30.73
2023-04-07T23:06:28.476Z,27.30
2023-04-07T23:08:55.816Z,24.27
2023-04-07T23:11:22.741Z,26.97
2023-04-07T23:13:49.671Z,26.40
2023-04-07T23:16:16.456Z,24.27
2023-04-07T23:18:43.585Z,25.20
2023-04-07T23:21:11.029Z,25.17
2023-04-07T23:23:38.930Z,23.83
2023-04-07T23:26:06.727Z,20.73
2023-04-07T23:28:33.577Z,30.17
2023-04-07T23:31:01.551Z,34.03
2023-04-07T23:33:30.941Z,29.03
2023-04-07T23:35:58.410Z,29.40
2023-04-07T23:38:25.919Z,26.03
2023-04-07T23:40:53.127Z,31.80
2023-04-07T23:43:20.272Z,33.23
2023-04-07T23:45:47.411Z,29.67
2023-04-07T23:48:14.694Z,31.57
2023-04-07T23:50:41.790Z,31.87
2023-04-07T23:53:08.583Z,24.07
2023-04-07T23:55:35.780Z,31.70
2023-04-07T23:58:02.912Z,29.57
